Time;durP1;ratioP1;P1;durP2;ratioP2;P2;SDS_P1;SDS_P2;PMS_P1;PMS_P2;Temp;Humidity;BMP_temperature;BMP_pressure;BME280_temperature;BME280_humidity;BME280_pressure;Samples;Min_cycle;Max_cycle;Signal;HPM_P1;HPM_P2
2023/04/21 00:02:25;;;;;;;29.00;18.40;;;10.60;99.90;;;;;;6139315;23;20009;-89
2023/04/21 00:04:51;;;;;;;26.73;19.00;;;10.60;99.90;;;;;;6140522;23;20028;-95
2023/04/21 00:07:21;;;;;;;29.73;19.60;;;10.60;99.90;;;;;;6153272;23;20020;-96
2023/04/21 00:09:47;;;;;;;28.58;18.63;;;10.60;99.90;;;;;;6173823;23;20011;-90
2023/04/21 00:12:12;;;;;;;32.03;20.02;;;10.50;99.90;;;;;;6146192;23;20061;-92
2023/04/21 00:14:44;;;;;;;28.40;19.35;;;10.50;99.90;;;;;;6086974;23;20006;-96
2023/04/21 00:17:10;;;;;;;33.28;19.58;;;10.50;99.90;;;;;;6150538;23;20010;-88
2023/04/21 00:19:35;;;;;;;27.80;19.35;;;10.40;99.90;;;;;;6157769;23;20019;-91
2023/04/21 00:22:03;;;;;;;30.33;19.70;;;10.40;99.90;;;;;;6137364;23;20097;-91
2023/04/21 00:24:28;;;;;;;29.65;20.52;;;10.40;99.90;;;;;;6133576;23;20025;-91
2023/04/21 00:26:54;;;;;;;33.45;21.55;;;10.50;99.90;;;;;;6108830;23;20014;-92
2023/04/21 00:29:20;;;;;;;29.08;21.13;;;10.40;99.90;;;;;;6134343;23;20037;-91
2023/04/21 00:31:49;;;;;;;29.45;19.30;;;10.40;99.90;;;;;;6132670;23;20005;-91
2023/04/21 00:34:14;;;;;;;29.75;21.00;;;10.40;99.90;;;;;;6133408;23;20012;-92
2023/04/21 00:36:40;;;;;;;36.00;20.88;;;10.40;99.90;;;;;;6132190;23;20017;-92
2023/04/21 00:39:06;;;;;;;31.83;21.55;;;10.40;99.90;;;;;;6109015;23;20006;-91
2023/04/21 00:41:53;;;;;;;30.52;21.83;;;10.40;99.90;;;;;;6132961;23;20013;-90
2023/04/21 00:44:19;;;;;;;32.28;20.75;;;10.40;99.90;;;;;;6136049;23;20017;-90
2023/04/21 00:46:57;;;;;;;34.00;22.35;;;10.40;99.90;;;;;;6108448;23;20096;-90
2023/04/21 00:49:24;;;;;;;33.60;22.30;;;10.30;99.90;;;;;;6109589;23;20057;-90
2023/04/21 00:51:57;;;;;;;36.28;22.38;;;10.30;99.90;;;;;;6149980;23;20017;-91
2023/04/21 00:54:24;;;;;;;32.50;21.15;;;10.30;99.90;;;;;;6107738;23;20092;-93
2023/04/21 00:56:57;;;;;;;31.95;21.75;;;10.30;99.90;;;;;;6133836;23;19998;-91
2023/04/21 00:59:23;;;;;;;33.97;22.05;;;10.30;99.90;;;;;;6107278;23;20018;-87
2023/04/21 01:08:43;;;;;;;35.08;23.00;;;10.20;99.90;;;;;;6233154;23;20031;-91
2023/04/21 01:11:37;;;;;;;36.28;23.67;;;10.20;99.90;;;;;;6204451;23;20009;-90
2023/04/21 01:14:11;;;;;;;34.05;22.88;;;10.20;99.90;;;;;;6206006;23;20005;-89
2023/04/21 01:16:53;;;;;;;;;;;;;;;;;;;;;
2023/04/21 01:19:38;;;;;;;;;;;;;;;;;;;;;
2023/04/21 01:22:31;;;;;;;;;;;;;;;;;;;;;
2023/04/21 01:25:10;;;;;;;;;;;;;;;;;;;;;
2023/04/21 01:27:54;;;;;;;39.83;25.23;;;10.10;99.90;;;;;;6193638;23;20092;-90
2023/04/21 01:30:45;;;;;;;40.28;24.45;;;10.10;99.90;;;;;;6168629;23;20012;-90
2023/04/21 01:33:20;;;;;;;37.72;24.13;;;10.10;99.90;;;;;;6191964;23;20039;-91
2023/04/21 01:36:04;;;;;;;;;;;;;;;;;;;;;
2023/04/21 01:38:53;;;;;;;44.40;25.90;;;10.00;99.90;;;;;;6217799;23;20083;-89
2023/04/21 01:41:58;;;;;;;;;;;;;;;;;;;;;
2023/04/21 01:44:34;;;;;;;41.70;26.25;;;10.00;99.90;;;;;;6198524;23;20099;-91
2023/04/21 01:47:24;;;;;;;;;;;;;;;;;;;;;
2023/04/21 01:53:00;;;;;;;43.33;26.77;;;10.00;99.90;;;;;;6195724;23;20011;-91
2023/04/21 01:59:04;;;;;;;;;;;;;;;;;;;;;
2023/04/21 02:02:14;;;;;;;58.35;28.45;;;9.90;99.90;;;;;;6230563;23;20008;-91
2023/04/21 02:05:14;;;;;;;;;;;;;;;;;;;;;
2023/04/21 02:08:00;;;;;;;42.70;26.42;;;9.90;99.90;;;;;;6221085;23;20051;-91
2023/04/21 02:11:10;;;;;;;43.15;26.02;;;9.90;99.90;;;;;;6191909;23;20419;-92
2023/04/21 02:14:11;;;;;;;;;;;;;;;;;;;;;
2023/04/21 02:19:52;;;;;;;48.70;26.23;;;9.80;99.90;;;;;;6196641;23;20371;-92
2023/04/21 02:22:47;;;;;;;;;;;;;;;;;;;;;
2023/04/21 02:25:36;;;;;;;43.05;26.48;;;9.80;99.90;;;;;;6201025;23;20036;-92
2023/04/21 02:28:46;;;;;;;47.60;27.02;;;9.80;99.90;;;;;;6194141;23;20062;-91
2023/04/21 02:31:50;;;;;;;45.83;26.45;;;9.80;99.90;;;;;;6195697;23;20040;-91
2023/04/21 02:38:10;;;;;;;;;;;;;;;;;;;;;
2023/04/21 02:41:23;;;;;;;44.30;25.60;;;9.80;99.90;;;;;;6219236;23;20144;-93
2023/04/21 02:44:30;;;;;;;;;;;;;;;;;;;;;
2023/04/21 02:57:55;;;;;;;;;;;;;;;;;;;;;
2023/04/21 03:04:10;;;;;;;49.70;27.73;;;9.70;99.90;;;;;;6208316;23;20007;-92
2023/04/21 03:19:52;;;;;;;;;;;;;;;;;;;;;
2023/04/21 03:26:19;;;;;;;;;;;;;;;;;;;;;
2023/04/21 03:29:38;;;;;;;;;;;;;;;;;;;;;
2023/04/21 03:43:23;;;;;;;54.58;31.42;;;9.60;99.90;;;;;;6168333;23;20005;-95
2023/04/21 03:46:24;;;;;;;54.28;30.48;;;9.70;99.90;;;;;;6135355;23;20017;-92
2023/04/21 04:05:51;;;;;;;52.17;31.10;;;9.70;99.90;;;;;;6185729;23;20007;-93
2023/04/21 04:15:57;;;;;;;66.53;36.22;;;9.70;99.90;;;;;;6202623;23;20001;-92
2023/04/21 04:19:05;;;;;;;;;;;;;;;;;;;;;
2023/04/21 04:25:21;;;;;;;;;;;;;;;;;;;;;
2023/04/21 04:37:44;;;;;;;70.97;36.20;;;9.70;99.90;;;;;;6199562;23;20008;-91
2023/04/21 04:40:42;;;;;;;;;;;;;;;;;;;;;
2023/04/21 04:50:16;;;;;;;6.40;4.38;;;9.60;99.90;;;;;;6196841;23;20012;-91
2023/04/21 04:53:25;;;;;;;;;;;;;;;;;;;;;
2023/04/21 04:56:48;;;;;;;;;;;;;;;;;;;;;
2023/04/21 04:59:45;;;;;;;107.22;44.25;;;9.60;99.90;;;;;;6218689;23;20382;-91
2023/04/21 05:02:58;;;;;;;;;;;;;;;;;;;;;
2023/04/21 05:06:13;;;;;;;112.90;47.47;;;9.60;99.90;;;;;;6218441;23;20080;-94
2023/04/21 05:09:05;;;;;;;;;;;;;;;;;;;;;
2023/04/21 05:16:22;;;;;;;;;;;;;;;;;;;;;
2023/04/21 05:19:27;;;;;;;;;;;;;;;;;;;;;
2023/04/21 05:28:35;;;;;;;;;;;;;;;;;;;;;
2023/04/21 05:31:38;;;;;;;99.28;44.92;;;9.60;99.90;;;;;;6127502;23;20080;-93
2023/04/21 05:34:33;;;;;;;;;;;;;;;;;;;;;
2023/04/21 05:37:32;;;;;;;;;;;;;;;;;;;;;
2023/04/21 05:40:55;;;;;;;;;;;;;;;;;;;;;
2023/04/21 05:43:50;;;;;;;96.15;42.45;;;9.60;99.90;;;;;;6219652;23;20089;-95
2023/04/21 05:47:02;;;;;;;88.35;42.70;;;9.60;99.90;;;;;;6105297;23;20010;-95
2023/04/21 05:49:53;;;;;;;89.43;41.75;;;9.70;99.90;;;;;;6193125;23;20031;-94
2023/04/21 05:56:30;;;;;;;;;;;;;;;;;;;;;
2023/04/21 05:59:20;;;;;;;71.68;37.80;;;9.70;99.90;;;;;;6218110;23;20092;-94
2023/04/21 06:05:37;;;;;;;;;;;;;;;;;;;;;
2023/04/21 06:15:10;;;;;;;;;;;;;;;;;;;;;
2023/04/21 06:21:19;;;;;;;82.43;39.63;;;9.80;99.90;;;;;;6205644;23;20009;-94
2023/04/21 06:24:26;;;;;;;;;;;;;;;;;;;;;
2023/04/21 06:27:30;;;;;;;81.07;39.25;;;9.90;99.90;;;;;;6218330;23;20088;-96
2023/04/21 06:30:49;;;;;;;;;;;;;;;;;;;;;
2023/04/21 06:34:07;;;;;;;70.55;37.50;;;9.90;99.90;;;;;;6218175;23;20079;-94
2023/04/21 06:37:23;;;;;;;;;;;;;;;;;;;;;
2023/04/21 06:40:21;;;;;;;;;;;;;;;;;;;;;
2023/04/21 06:44:01;;;;;;;;;;;;;;;;;;;;;
2023/04/21 06:50:45;;;;;;;78.93;41.05;;;10.10;99.90;;;;;;6126693;23;20018;-91
2023/04/21 06:54:03;;;;;;;;;;;;;;;;;;;;;
2023/04/21 06:56:41;;;;;;;78.72;42.17;;;10.20;99.90;;;;;;6123072;23;20159;-94
2023/04/21 07:03:09;;;;;;;93.57;43.08;;;10.20;99.90;;;;;;6087654;23;20010;-94
2023/04/21 07:05:32;;;;;;;82.85;42.10;;;10.20;99.90;;;;;;6117393;23;20010;-93
2023/04/21 07:11:41;;;;;;;81.70;42.38;;;10.30;99.90;;;;;;6178065;23;20005;-93
2023/04/21 07:18:33;;;;;;;;;;;;;;;;;;;;;
2023/04/21 07:21:19;;;;;;;;;;;;;;;;;;;;;
2023/04/21 07:24:10;;;;;;;76.72;42.83;;;10.50;99.90;;;;;;6188893;23;20080;-93
2023/04/21 07:30:39;;;;;;;79.18;43.90;;;10.60;99.90;;;;;;6173599;23;20001;-93
2023/04/21 07:33:34;;;;;;;;;;;;;;;;;;;;;
2023/04/21 07:36:10;;;;;;;83.22;42.47;;;10.60;99.90;;;;;;6189772;23;20076;-93
2023/04/21 07:38:53;;;;;;;;;;;;;;;;;;;;;
2023/04/21 07:41:45;;;;;;;;;;;;;;;;;;;;;
2023/04/21 07:44:49;;;;;;;;;;;;;;;;;;;;;
2023/04/21 07:47:45;;;;;;;;;;;;;;;;;;;;;
2023/04/21 07:50:34;;;;;;;80.55;45.17;;;10.80;99.90;;;;;;6177802;23;20371;-92
2023/04/21 07:53:29;;;;;;;86.55;45.88;;;10.80;99.90;;;;;;6164243;23;20001;-94
2023/04/21 07:56:13;;;;;;;;;;;;;;;;;;;;;
2023/04/21 07:59:22;;;;;;;70.65;42.78;;;10.90;99.90;;;;;;6182668;23;20008;-94
2023/04/21 08:02:57;;;;;;;;;;;;;;;;;;;;;
2023/04/21 08:05:16;;;;;;;74.13;43.90;;;10.90;99.90;;;;;;6185668;23;20053;-92
2023/04/21 08:07:57;;;;;;;;;;;;;;;;;;;;;
2023/04/21 08:10:26;;;;;;;;;;;11.00;99.90;;;;;;6207479;23;20036;-94
2023/04/21 08:13:27;;;;;;;;;;;;;;;;;;;;;
2023/04/21 08:16:04;;;;;;;;;;;;;;;;;;;;;
2023/04/21 08:19:26;;;;;;;66.30;42.13;;;11.30;99.90;;;;;;6237229;23;20004;-93
2023/04/21 08:22:37;;;;;;;67.55;43.28;;;11.30;99.90;;;;;;6228566;23;20005;-93
2023/04/21 08:25:49;;;;;;;;;;;;;;;;;;;;;
2023/04/21 08:28:50;;;;;;;;;;;;;;;;;;;;;
2023/04/21 08:34:50;;;;;;;;;;;;;;;;;;;;;
2023/04/21 08:37:18;;;;;;;62.38;41.60;;;11.60;99.90;;;;;;6192556;23;20088;-91
2023/04/21 08:39:49;;;;;;;65.57;42.83;;;11.70;99.90;;;;;;6192017;23;20000;-94
2023/04/21 08:43:05;;;;;;;60.95;41.42;;;11.70;99.90;;;;;;6193130;23;20426;-92
2023/04/21 08:45:48;;;;;;;;;;;;;;;;;;;;;
2023/04/21 08:48:52;;;;;;;;;;;;;;;;;;;;;
2023/04/21 08:51:43;;;;;;;;;;;;;;;;;;;;;
2023/04/21 08:54:41;;;;;;;65.18;41.85;;;11.90;99.90;;;;;;6219215;23;20084;-93
2023/04/21 09:00:10;;;;;;;63.13;42.17;;;12.10;99.90;;;;;;6192742;23;20066;-91
2023/04/21 09:03:37;;;;;;;;;;;;;;;;;;;;;
2023/04/21 09:06:13;;;;;;;57.05;38.88;;;12.30;99.90;;;;;;6217844;23;20514;-92
2023/04/21 09:12:28;;;;;;;52.03;37.05;;;12.40;99.90;;;;;;6200918;23;20016;-93
2023/04/21 09:15:16;;;;;;;53.47;37.08;;;12.40;99.90;;;;;;6191741;23;20419;-93
2023/04/21 09:21:14;;;;;;;56.25;38.03;;;12.50;99.90;;;;;;6188635;23;20035;-92
2023/04/21 09:24:12;;;;;;;48.03;35.88;;;12.50;99.90;;;;;;6192066;23;20024;-92
2023/04/21 09:27:18;;;;;;;;;;;;;;;;;;;;;
2023/04/21 09:30:31;;;;;;;46.60;34.50;;;12.60;99.90;;;;;;6196402;23;20085;-90
2023/04/21 09:33:27;;;;;;;48.40;36.72;;;12.70;99.90;;;;;;6217969;23;20482;-91
2023/04/21 09:36:52;;;;;;;;;;;;;;;;;;;;;
2023/04/21 09:40:26;;;;;;;;;;;;;;;;;;;;;
2023/04/21 09:43:27;;;;;;;;;;;;;;;;;;;;;
2023/04/21 09:46:20;;;;;;;;;;;;;;;;;;;;;
2023/04/21 09:49:18;;;;;;;;;;;;;;;;;;;;;
2023/04/21 09:52:00;;;;;;;45.85;34.88;;;12.80;99.90;;;;;;6218434;23;20076;-92
2023/04/21 09:54:40;;;;;;;48.08;36.17;;;12.90;99.90;;;;;;6191682;23;20001;-91
2023/04/21 09:58:06;;;;;;;;;;;;;;;;;;;;;
2023/04/21 10:00:41;;;;;;;48.13;36.08;;;13.00;99.90;;;;;;6216104;23;20107;-94
2023/04/21 10:03:30;;;;;;;43.63;35.40;;;13.10;99.90;;;;;;6194964;23;20007;-90
2023/04/21 10:06:23;;;;;;;45.70;34.53;;;13.20;99.90;;;;;;6221191;23;20474;-95
2023/04/21 10:09:14;;;;;;;44.85;34.67;;;13.20;99.90;;;;;;6196351;23;20020;-91
2023/04/21 10:11:54;;;;;;;40.90;33.28;;;13.30;99.90;;;;;;6212617;23;20068;-92
2023/04/21 10:14:56;;;;;;;;;;;;;;;;;;;;;
2023/04/21 10:17:41;;;;;;;45.67;32.92;;;13.40;99.90;;;;;;6221044;23;20389;-90
2023/04/21 10:20:14;;;;;;;42.60;31.58;;;13.50;99.90;;;;;;6202370;23;20063;-91
2023/04/21 10:22:54;;;;;;;;;;;;;;;;;;;;;
2023/04/21 10:25:23;;;;;;;40.88;31.38;;;13.50;99.90;;;;;;6227995;23;20035;-93
2023/04/21 10:27:54;;;;;;;40.13;33.13;;;13.50;99.90;;;;;;6193411;23;20435;-92
2023/04/21 10:30:37;;;;;;;39.83;30.60;;;13.60;99.90;;;;;;6169737;23;20011;-92
2023/04/21 10:33:09;;;;;;;40.33;32.53;;;13.50;99.90;;;;;;6174641;23;20005;-91
2023/04/21 10:36:18;;;;;;;40.30;29.55;;;13.60;99.90;;;;;;6202415;23;20011;-92
2023/04/21 10:39:05;;;;;;;36.25;28.83;;;13.60;99.90;;;;;;6192489;23;20004;-93
2023/04/21 10:41:46;;;;;;;;;;;;;;;;;;;;;
2023/04/21 10:44:37;;;;;;;;;;;13.70;99.90;;;;;;6220001;23;20071;-95
2023/04/21 10:53:55;;;;;;;36.35;28.55;;;13.60;99.90;;;;;;6183653;23;20043;-92
2023/04/21 10:56:44;;;;;;;37.47;29.55;;;13.70;99.90;;;;;;6192664;23;20013;-91
2023/04/21 10:59:35;;;;;;;37.90;29.90;;;13.70;99.90;;;;;;6193039;23;20063;-92
2023/04/21 11:02:13;;;;;;;36.38;28.98;;;13.80;99.90;;;;;;6218761;23;20002;-92
2023/04/21 11:05:04;;;;;;;33.20;28.20;;;13.80;99.90;;;;;;6193990;23;20001;-92
2023/04/21 11:08:00;;;;;;;33.88;29.90;;;13.90;99.90;;;;;;6195596;23;20017;-92
2023/04/21 11:11:17;;;;;;;;;;;;;;;;;;;;;
2023/04/21 11:17:38;;;;;;;37.80;28.63;;;14.00;99.90;;;;;;6163349;23;20012;-94
2023/04/21 11:20:09;;;;;;;36.33;29.48;;;14.00;99.90;;;;;;6177707;23;20091;-92
2023/04/21 11:23:07;;;;;;;;;;;;;;;;;;;;;
2023/04/21 11:25:42;;;;;;;34.88;28.30;;;14.00;99.90;;;;;;6218267;23;20084;-93
2023/04/21 11:28:31;;;;;;;31.30;25.40;;;14.10;99.90;;;;;;6193621;23;20009;-92
2023/04/21 11:35:00;;;;;;;33.20;24.65;;;14.30;99.90;;;;;;6175813;23;20008;-93
2023/04/21 11:37:33;;;;;;;31.25;23.45;;;14.30;99.90;;;;;;6192414;23;20017;-94
2023/04/21 11:40:13;;;;;;;;;;;;;;;;;;;;;
2023/04/21 11:46:36;;;;;;;30.35;23.10;;;14.50;99.90;;;;;;6224831;23;20020;-93
2023/04/21 11:49:24;;;;;;;;;;;;;;;;;;;;;
2023/04/21 11:52:27;;;;;;;30.63;23.27;;;14.50;99.90;;;;;;6234905;23;20059;-93
2023/04/21 11:55:14;;;;;;;;;;;;;;;;;;;;;
2023/04/21 11:58:02;;;;;;;30.90;22.55;;;14.50;99.90;;;;;;6230227;23;20354;-92
2023/04/21 12:00:47;;;;;;;;;;;;;;;;;;;;;
2023/04/21 12:03:18;;;;;;;28.20;23.48;;;14.50;99.90;;;;;;6197725;23;20080;-91
2023/04/21 12:06:18;;;;;;;29.02;22.92;;;14.60;99.90;;;;;;6197895;23;20008;-92
2023/04/21 12:09:07;;;;;;;;;;;;;;;;;;;;;
2023/04/21 12:12:02;;;;;;;;;;;;;;;;;;;;;
2023/04/21 12:14:54;;;;;;;;;;;;;;;;;;;;;
2023/04/21 12:17:49;;;;;;;;;;;;;;;;;;;;;
2023/04/21 12:23:44;;;;;;;31.30;23.50;;;14.70;99.90;;;;;;6218842;23;20005;-92
2023/04/21 12:29:53;;;;;;;30.15;23.63;;;14.80;99.90;;;;;;6187843;23;20338;-91
2023/04/21 12:32:38;;;;;;;30.02;23.55;;;14.70;99.90;;;;;;6188473;23;20009;-91
2023/04/21 12:35:37;;;;;;;;;;;;;;;;;;;;;
2023/04/21 12:38:08;;;;;;;27.48;22.83;;;14.80;99.90;;;;;;6219067;23;20072;-91
2023/04/21 12:40:55;;;;;;;;;;;;;;;;;;;;;
2023/04/21 12:43:29;;;;;;;29.63;24.08;;;14.80;99.90;;;;;;6194650;23;20084;-91
2023/04/21 12:49:17;;;;;;;28.38;23.33;;;15.00;99.90;;;;;;6202543;23;20008;-91
2023/04/21 12:52:09;;;;;;;;;;;;;;;;;;;;;
2023/04/21 12:54:40;;;;;;;29.63;24.92;;;15.10;99.90;;;;;;6194233;23;20080;-92
2023/04/21 12:57:16;;;;;;;30.08;23.85;;;15.00;99.90;;;;;;6191292;23;20039;-91
2023/04/21 13:00:13;;;;;;;;;;;;;;;;;;;;;
2023/04/21 13:03:29;;;;;;;;;;;;;;;;;;;;;
2023/04/21 13:06:29;;;;;;;;;;;;;;;;;;;;;
2023/04/21 13:08:54;;;;;;;29.25;23.05;;;15.30;99.90;;;;;;6215732;23;20423;-91
2023/04/21 13:11:40;;;;;;;;;;;;;;;;;;;;;
2023/04/21 13:14:35;;;;;;;27.70;22.17;;;15.30;99.90;;;;;;6217561;23;20527;-92
2023/04/21 13:17:06;;;;;;;30.05;23.50;;;15.50;99.90;;;;;;6193419;23;20013;-92
2023/04/21 13:20:05;;;;;;;;;;;;;;;;;;;;;
2023/04/21 13:22:51;;;;;;;26.08;20.23;;;15.70;99.90;;;;;;6217640;23;20076;-91
2023/04/21 13:25:39;;;;;;;;;;;;;;;;;;;;;
2023/04/21 13:28:13;;;;;;;22.88;18.27;;;16.00;99.90;;;;;;6218541;23;20091;-92
2023/04/21 13:31:14;;;;;;;;;;;;;;;;;;;;;
2023/04/21 13:36:53;;;;;;;;;;;;;;;;;;;;;
2023/04/21 13:39:35;;;;;;;;;;;;;;;;;;;;;
2023/04/21 13:42:24;;;;;;;20.70;17.65;;;16.50;99.90;;;;;;6195160;23;20083;-92
2023/04/21 13:45:13;;;;;;;;;;;;;;;;;;;;;
2023/04/21 13:48:12;;;;;;;;;;;;;;;;;;;;;
2023/04/21 13:53:50;;;;;;;23.40;17.35;;;16.90;99.90;;;;;;6202195;23;20008;-91
2023/04/21 13:56:51;;;;;;;;;;;;;;;;;;;;;
2023/04/21 13:59:42;;;;;;;20.38;17.05;;;17.00;99.90;;;;;;6196499;23;20088;-91
2023/04/21 14:02:42;;;;;;;;;;;;;;;;;;;;;
2023/04/21 14:05:13;;;;;;;22.27;16.90;;;16.90;99.90;;;;;;6218161;23;20093;-91
2023/04/21 14:11:11;;;;;;;20.85;16.65;;;16.80;99.90;;;;;;6194886;23;20459;-94
2023/04/21 14:14:07;;;;;;;19.92;16.25;;;16.80;99.90;;;;;;6191715;23;20032;-92
2023/04/21 14:16:33;;;;;;;20.33;17.13;;;16.90;99.90;;;;;;6171420;23;20009;-91
2023/04/21 14:19:37;;;;;;;;;;;;;;;;;;;;;
2023/04/21 14:22:34;;;;;;;21.90;17.70;;;17.00;99.90;;;;;;6194303;23;20088;-91
2023/04/21 14:25:22;;;;;;;23.08;18.80;;;17.10;99.90;;;;;;6191059;23;20008;-92
2023/04/21 14:28:03;;;;;;;;;;;;;;;;;;;;;
2023/04/21 14:33:28;;;;;;;;;;;;;;;;;;;;;
2023/04/21 14:36:12;;;;;;;;;;;;;;;;;;;;;
2023/04/21 14:45:04;;;;;;;;;;;;;;;;;;;;;
2023/04/21 14:51:09;;;;;;;;;;;;;;;;;;;;;
2023/04/21 14:57:08;;;;;;;23.98;17.55;;;17.10;99.90;;;;;;6208944;23;20020;-94
2023/04/21 14:59:59;;;;;;;22.52;18.17;;;17.20;99.90;;;;;;6192926;23;20324;-93
2023/04/21 15:03:24;;;;;;;;;;;;;;;;;;;;;
2023/04/21 15:06:19;;;;;;;;;;;;;;;;;;;;;
2023/04/21 15:09:18;;;;;;;20.60;17.20;;;17.40;99.90;;;;;;6195385;23;20087;-93
2023/04/21 15:11:53;;;;;;;23.27;18.17;;;17.40;99.90;;;;;;6193603;23;20017;-91
2023/04/21 15:17:43;;;;;;;;;;;;;;;;;;;;;
2023/04/21 15:20:24;;;;;;;22.13;18.35;;;17.40;99.90;;;;;;6228955;23;20020;-93
2023/04/21 15:26:07;;;;;;;24.83;18.98;;;17.40;99.90;;;;;;6220771;23;20008;-92
2023/04/21 15:28:45;;;;;;;;;;;;;;;;;;;;;
2023/04/21 15:31:36;;;;;;;23.55;18.58;;;17.50;99.90;;;;;;6242099;23;20005;-94
2023/04/21 15:34:20;;;;;;;;;;;17.40;99.90;;;;;;6209695;23;19997;-95
2023/04/21 15:37:05;;;;;;;;;;;;;;;;;;;;;
2023/04/21 15:39:40;;;;;;;25.98;19.85;;;17.40;99.90;;;;;;6223614;23;20043;-93
2023/04/21 15:42:16;;;;;;;;;;;;;;;;;;;;;
2023/04/21 15:45:22;;;;;;;;;;;;;;;;;;;;;
2023/04/21 15:50:37;;;;;;;26.38;19.13;;;17.30;99.90;;;;;;6205612;23;20005;-91
2023/04/21 15:53:17;;;;;;;;;;;;;;;;;;;;;
2023/04/21 15:56:16;;;;;;;;;;;;;;;;;;;;;
2023/04/21 15:58:45;;;;;;;24.88;18.67;;;17.40;99.90;;;;;;6216721;23;20077;-89
2023/04/21 16:01:18;;;;;;;21.98;16.65;;;17.50;99.90;;;;;;6189929;23;20427;-90
2023/04/21 16:03:47;;;;;;;22.52;18.13;;;17.50;99.90;;;;;;6192364;23;20001;-90
2023/04/21 16:06:23;;;;;;;23.83;18.08;;;17.60;99.90;;;;;;6191805;23;20004;-90
2023/04/21 16:09:11;;;;;;;24.25;18.58;;;17.60;99.90;;;;;;6193725;23;20001;-90
2023/04/21 16:12:18;;;;;;;;;;;;;;;;;;;;;
2023/04/21 16:14:59;;;;;;;22.88;18.98;;;17.80;99.90;;;;;;6187166;23;20005;-90
2023/04/21 16:17:30;;;;;;;23.27;18.85;;;17.80;99.90;;;;;;6162090;23;20009;-89
2023/04/21 16:19:59;;;;;;;;;;;17.90;99.90;;;;;;6162523;23;20431;-90
2023/04/21 16:22:37;;;;;;;;;;;;;;;;;;;;;
2023/04/21 16:25:18;;;;;;;24.00;18.85;;;17.90;99.90;;;;;;6187857;23;20093;-89
2023/04/21 16:28:10;;;;;;;23.23;18.25;;;17.90;99.90;;;;;;6141168;23;20013;-90
2023/04/21 16:30:44;;;;;;;27.65;19.25;;;17.90;99.90;;;;;;6167094;23;20032;-88
2023/04/21 16:33:24;;;;;;;;;;;;;;;;;;;;;
2023/04/21 16:35:53;;;;;;;22.48;17.63;;;17.90;99.90;;;;;;6165547;23;20080;-92
2023/04/21 16:38:32;;;;;;;;;;;;;;;;;;;;;
2023/04/21 16:41:12;;;;;;;;;;;;;;;;;;;;;
2023/04/21 16:43:43;;;;;;;23.88;18.23;;;17.90;99.90;;;;;;6191330;23;20076;-92
2023/04/21 16:46:26;;;;;;;22.42;17.58;;;18.00;99.90;;;;;;6166946;23;20028;-91
2023/04/21 16:49:02;;;;;;;;;;;;;;;;;;;;;
2023/04/21 16:52:30;;;;;;;;;;;;;;;;;;;;;
2023/04/21 16:55:07;;;;;;;21.10;17.88;;;18.20;99.90;;;;;;6185903;23;20013;-93
2023/04/21 16:57:43;;;;;;;22.08;18.40;;;18.10;99.90;;;;;;6163524;23;20028;-93
2023/04/21 17:00:46;;;;;;;;;;;;;;;;;;;;;
2023/04/21 17:03:26;;;;;;;22.05;17.42;;;18.10;99.90;;;;;;6130525;23;20092;-90
2023/04/21 17:06:19;;;;;;;;;;;;;;;;;;;;;
2023/04/21 17:08:51;;;;;;;17.10;14.40;;;18.00;99.90;;;;;;6166070;23;20076;-90
2023/04/21 17:15:16;;;;;;;;;;;;;;;;;;;;;
2023/04/21 17:21:18;;;;;;;17.23;13.93;;;17.70;99.90;;;;;;6218152;23;20005;-90
2023/04/21 17:23:56;;;;;;;;;;;;;;;;;;;;;
2023/04/21 17:27:16;;;;;;;;;;;;;;;;;;;;;
2023/04/21 17:33:06;;;;;;;23.48;18.77;;;17.60;99.90;;;;;;6194389;23;20116;-91
2023/04/21 17:35:44;;;;;;;;;;;;;;;;;;;;;
2023/04/21 17:38:41;;;;;;;25.23;19.00;;;17.60;99.90;;;;;;6194502;23;20036;-91
2023/04/21 17:41:48;;;;;;;;;;;;;;;;;;;;;
2023/04/21 17:44:40;;;;;;;;;;;;;;;;;;;;;
2023/04/21 18:02:27;;;;;;;;;;;;;;;;;;;;;
2023/04/21 18:05:51;;;;;;;;;;;;;;;;;;;;;
2023/04/21 18:14:41;;;;;;;10.00;6.18;;;12.10;99.90;;;;;;5078149;27;1373990;-91
2023/04/21 18:17:08;;;;;;;24.30;16.42;;;12.20;99.90;;;;;;5058304;28;20064;-89
2023/04/21 18:19:37;;;;;;;12.30;6.07;;;12.20;99.90;;;;;;5075466;28;20028;-89
2023/04/21 18:22:06;;;;;;;7.18;3.63;;;12.30;99.90;;;;;;5074740;28;20025;-89
2023/04/21 18:24:38;;;;;;;7.15;2.70;;;12.30;99.90;;;;;;5062726;28;20092;-92
2023/04/21 18:27:09;;;;;;;5.28;2.50;;;12.30;99.90;;;;;;5066927;28;20026;-91
2023/04/21 18:29:38;;;;;;;5.35;2.65;;;12.30;99.90;;;;;;5071619;28;20032;-91
2023/04/21 18:32:10;;;;;;;6.05;2.72;;;12.20;99.90;;;;;;5112817;28;20028;-90
2023/04/21 18:34:40;;;;;;;7.90;2.70;;;12.30;99.90;;;;;;5077516;28;20101;-90
2023/04/21 18:37:05;;;;;;;8.77;4.43;;;12.30;99.90;;;;;;5077770;28;20035;-90
2023/04/21 18:39:31;;;;;;;7.63;3.63;;;12.40;99.90;;;;;;5077627;28;20423;-90
2023/04/21 18:41:57;;;;;;;5.78;3.28;;;12.40;99.90;;;;;;5094615;28;20536;-90
2023/04/21 18:44:24;;;;;;;8.88;3.58;;;12.40;99.90;;;;;;5111147;28;20445;-89
2023/04/21 18:46:49;;;;;;;8.95;3.95;;;12.40;99.90;;;;;;5078485;28;20119;-90
2023/04/21 18:49:15;;;;;;;7.03;3.85;;;12.40;99.90;;;;;;5094690;28;20055;-88
2023/04/21 18:51:41;;;;;;;18.60;10.77;;;12.40;99.90;;;;;;5077559;28;20088;-90
2023/04/21 18:54:07;;;;;;;17.83;8.82;;;12.30;99.90;;;;;;5077381;28;20024;-90
2023/04/21 18:56:33;;;;;;;8.30;4.97;;;12.40;99.90;;;;;;5111072;28;20024;-90
2023/04/21 18:58:59;;;;;;;11.10;4.50;;;12.30;99.90;;;;;;5111299;28;20024;-90
2023/04/21 19:01:25;;;;;;;12.10;4.30;;;12.30;99.90;;;;;;5111602;28;20120;-90
2023/04/21 19:03:51;;;;;;;6.72;4.05;;;12.30;99.90;;;;;;5111878;28;20386;-90
2023/04/21 19:27:11;;;;;;;;;;;;;;;;;;;;;
2023/04/21 19:30:18;;;;;;;7.10;4.75;;;12.10;99.90;;;;;;4847029;29;20058;-90
2023/04/21 19:43:21;;;;;;;;;;;;;;;;;;;;;
2023/04/21 20:01:06;;;;;;;;;;;;;;;;;;;;;
2023/04/21 20:15:11;;;;;;;;;;;;;;;;;;;;;
2023/04/21 20:29:18;;;;;;;11.13;6.50;;;11.80;99.90;;;;;;4955751;23;20061;-95
2023/04/21 20:31:45;;;;;;;9.68;6.03;;;11.90;99.90;;;;;;4983507;28;20104;-96
2023/04/21 20:34:10;;;;;;;8.70;5.55;;;11.80;99.90;;;;;;4967865;28;20054;-93
2023/04/21 20:36:39;;;;;;;12.00;6.65;;;11.70;99.90;;;;;;4967864;28;20089;-94
2023/04/21 20:39:08;;;;;;;9.50;6.50;;;11.60;99.90;;;;;;4967241;28;20028;-95
2023/04/21 20:41:44;;;;;;;10.63;6.50;;;11.50;99.90;;;;;;5000264;28;20109;-94
2023/04/21 20:44:11;;;;;;;15.80;9.05;;;11.40;99.90;;;;;;4985055;28;20054;-96
2023/04/21 20:46:40;;;;;;;19.75;10.25;;;11.30;99.90;;;;;;4984217;28;20370;-92
2023/04/21 20:49:12;;;;;;;14.70;10.95;;;11.30;99.90;;;;;;4983156;28;20033;-91
2023/04/21 20:51:44;;;;;;;12.05;7.53;;;11.20;99.90;;;;;;4983253;28;20030;-91
2023/04/21 20:54:13;;;;;;;10.13;7.72;;;11.20;99.90;;;;;;4982844;28;20479;-93
2023/04/21 20:56:38;;;;;;;9.35;5.85;;;11.30;99.90;;;;;;4966880;28;20171;-92
2023/04/21 20:59:04;;;;;;;10.73;6.47;;;11.30;99.90;;;;;;5000032;28;20025;-96
2023/04/21 21:01:35;;;;;;;9.02;6.28;;;11.30;99.90;;;;;;5003917;28;20022;-96
2023/04/21 21:04:01;;;;;;;14.20;7.50;;;11.30;99.90;;;;;;5000375;28;20126;-91
2023/04/21 21:06:26;;;;;;;10.90;6.28;;;11.40;99.90;;;;;;4982468;28;20494;-91
2023/04/21 21:09:00;;;;;;;12.27;7.00;;;11.40;99.90;;;;;;4966442;28;20092;-91
2023/04/21 21:11:26;;;;;;;9.18;6.40;;;11.50;99.90;;;;;;4983507;28;20022;-91
2023/04/21 21:13:51;;;;;;;9.55;6.63;;;11.50;99.90;;;;;;4982314;28;20026;-91
2023/04/21 21:16:17;;;;;;;10.70;6.68;;;11.60;99.90;;;;;;4967215;28;20045;-92
2023/04/21 21:18:43;;;;;;;8.75;6.57;;;11.50;99.90;;;;;;4998178;28;20018;-90
2023/04/21 21:21:12;;;;;;;6.53;4.85;;;11.50;99.90;;;;;;4998672;28;20026;-91
2023/04/21 21:23:50;;;;;;;7.95;5.78;;;11.40;99.90;;;;;;4982716;28;20065;-91
2023/04/21 21:26:16;;;;;;;10.30;5.55;;;11.30;99.90;;;;;;4998688;28;20025;-90
2023/04/21 21:28:51;;;;;;;7.82;5.95;;;11.30;99.90;;;;;;4978572;28;20062;-90
2023/04/21 21:31:16;;;;;;;7.43;5.55;;;11.40;99.90;;;;;;4978902;28;20054;-90
2023/04/21 21:33:51;;;;;;;17.35;6.82;;;11.40;99.90;;;;;;4963025;28;20054;-92
2023/04/21 21:36:17;;;;;;;9.27;4.93;;;11.50;99.90;;;;;;4995278;28;20030;-95
2023/04/21 21:38:49;;;;;;;7.50;5.07;;;11.50;99.90;;;;;;4963448;28;20026;-94
2023/04/21 21:41:17;;;;;;;9.75;5.15;;;11.50;99.90;;;;;;4979175;28;20035;-95
2023/04/21 21:43:55;;;;;;;11.30;7.72;;;11.60;99.90;;;;;;4965024;28;20034;-96
2023/04/21 21:46:21;;;;;;;10.48;6.93;;;11.60;99.90;;;;;;4981494;28;20041;-96
2023/04/21 21:48:48;;;;;;;9.65;6.60;;;11.60;99.90;;;;;;4979450;28;20034;-90
2023/04/21 21:51:27;;;;;;;7.20;5.30;;;11.60;99.90;;;;;;4978672;28;20030;-89
2023/04/21 21:53:56;;;;;;;9.57;6.00;;;11.60;99.90;;;;;;4981770;28;20065;-93
2023/04/21 21:56:28;;;;;;;7.80;5.40;;;11.70;99.90;;;;;;4985985;28;20010;-93
2023/04/21 21:58:57;;;;;;;10.05;6.07;;;11.70;99.90;;;;;;4986038;28;20018;-93
2023/04/21 22:01:29;;;;;;;9.75;6.60;;;11.70;99.90;;;;;;4999926;28;20061;-95
2023/04/21 22:04:01;;;;;;;8.50;6.82;;;11.70;99.90;;;;;;4999423;28;20133;-93
2023/04/21 22:06:33;;;;;;;14.15;7.90;;;11.70;99.90;;;;;;4984653;28;20035;-90
2023/04/21 22:09:01;;;;;;;9.93;7.28;;;11.70;99.90;;;;;;4980219;28;20085;-92
2023/04/21 22:11:30;;;;;;;10.20;6.88;;;11.70;99.90;;;;;;4978741;28;20539;-92
2023/04/21 22:14:02;;;;;;;7.38;5.75;;;11.60;99.90;;;;;;4967182;28;20042;-91
2023/04/21 22:16:34;;;;;;;10.27;7.22;;;11.70;99.90;;;;;;4983415;28;20031;-91
2023/04/21 22:19:02;;;;;;;8.43;6.25;;;11.60;99.90;;;;;;4969793;28;20058;-94